createdAt,value
2019-05-02T00:02:28.791Z,56.73
2019-05-02T00:04:59.813Z,57.67
2019-05-02T00:07:32.276Z,55.77
2019-05-02T00:10:03.002Z,55.27
2019-05-02T00:12:34.060Z,55.80
2019-05-02T00:15:04.134Z,52.60
2019-05-02T00:17:38.650Z,55.57
2019-05-02T00:20:09.317Z,54.97
2019-05-02T00:22:40.024Z,57.40
2019-05-02T00:25:15.838Z,55.93
2019-05-02T00:27:42.429Z,55.93
2019-05-02T00:30:14.751Z,59.00
2019-05-02T00:32:45.529Z,55.93
2019-05-02T00:35:14.831Z,53.47
2019-05-02T00:37:43.878Z,54.60
2019-05-02T00:40:14.634Z,55.53
2019-05-02T00:42:44.572Z,56.27
2019-05-02T00:45:18.700Z,55.73
2019-05-02T00:47:55.782Z,56.87
2019-05-02T00:50:26.321Z,53.97
2019-05-02T00:52:57.038Z,54.83
2019-05-02T00:55:28.916Z,55.37
2019-05-02T00:57:57.416Z,56.03
2019-05-02T01:00:27.424Z,57.10
2019-05-02T01:03:01.121Z,55.97
2019-05-02T01:05:40.313Z,56.37
2019-05-02T01:08:10.104Z,55.87
2019-05-02T01:10:39.085Z,56.03
2019-05-02T01:13:08.839Z,55.17
2019-05-02T01:15:44.139Z,59.17
2019-05-02T01:18:25.347Z,55.37
2019-05-02T01:20:58.171Z,56.07
2019-05-02T01:23:27.558Z,55.07
2019-05-02T01:25:57.863Z,54.73
2019-05-02T01:28:44.506Z,57.23
2019-05-02T01:31:37.653Z,54.37
2019-05-02T01:34:22.917Z,56.03
2019-05-02T01:37:20.734Z,55.50
2019-05-02T01:39:46.626Z,56.27
2019-05-02T01:42:17.332Z,56.83
2019-05-02T01:44:47.145Z,59.03
2019-05-02T01:47:16.129Z,58.37
2019-05-02T01:49:52.013Z,56.67
2019-05-02T01:52:23.703Z,57.67
2019-05-02T01:54:51.229Z,57.60
2019-05-02T01:57:21.679Z,57.53
2019-05-02T01:59:50.769Z,57.93
2019-05-02T02:02:19.790Z,60.50
2019-05-02T02:04:52.141Z,56.13
2019-05-02T02:07:28.753Z,56.77
2019-05-02T02:10:19.801Z,56.63
2019-05-02T02:13:02.721Z,58.07
2019-05-02T02:15:19.189Z,60.07
2019-05-02T02:17:51.409Z,59.37
2019-05-02T02:20:22.853Z,58.00
2019-05-02T02:23:00.206Z,56.27
2019-05-02T02:25:36.184Z,56.83
2019-05-02T02:28:06.483Z,57.07
2019-05-02T02:30:36.204Z,54.80
2019-05-02T02:33:19.245Z,60.10
2019-05-02T02:35:50.480Z,56.57
2019-05-02T02:38:33.569Z,54.80
2019-05-02T02:40:59.528Z,55.20
2019-05-02T02:43:34.189Z,54.17
2019-05-02T02:46:21.548Z,55.37
2019-05-02T02:49:00.142Z,57.43
2019-05-02T02:51:29.171Z,56.47
2019-05-02T02:54:04.340Z,57.03
2019-05-02T02:56:38.204Z,56.90
2019-05-02T02:59:03.735Z,56.83
2019-05-02T03:01:32.756Z,55.90
2019-05-02T03:04:12.400Z,55.97
2019-05-02T03:06:45.070Z,55.57
2019-05-02T03:09:20.346Z,56.33
2019-05-02T03:12:07.576Z,55.80
2019-05-02T03:14:41.013Z,56.57
2019-05-02T03:17:11.901Z,52.57
2019-05-02T03:19:54.235Z,53.97
2019-05-02T03:22:27.402Z,55.87
2019-05-02T03:24:56.493Z,53.20
2019-05-02T03:27:29.915Z,54.70
2019-05-02T03:29:57.328Z,53.67
2019-05-02T03:32:35.998Z,55.43
2019-05-02T03:35:05.691Z,55.50
2019-05-02T03:37:50.860Z,56.27
2019-05-02T03:40:16.075Z,55.30
2019-05-02T03:42:47.670Z,57.67
2019-05-02T03:45:20.357Z,57.60
2019-05-02T03:47:49.390Z,57.50
2019-05-02T03:50:31.130Z,58.13
2019-05-02T03:52:49.983Z,55.97
2019-05-02T03:55:23.896Z,56.20
2019-05-02T03:57:59.222Z,55.30
2019-05-02T04:00:28.287Z,55.17
2019-05-02T04:03:00.345Z,57.10
2019-05-02T04:05:33.892Z,56.33
2019-05-02T04:08:00.303Z,54.10
2019-05-02T04:10:52.686Z,57.17
2019-05-02T04:13:19.088Z,57.03
2019-05-02T04:15:50.667Z,56.93
2019-05-02T04:18:20.619Z,55.83
2019-05-02T04:20:51.913Z,55.20
2019-05-02T04:23:29.881Z,53.20
2019-05-02T04:25:58.774Z,52.07
2019-05-02T04:28:29.638Z,54.03
2019-05-02T04:30:58.707Z,55.90
2019-05-02T04:33:29.101Z,54.50
2019-05-02T04:35:59.691Z,56.40
2019-05-02T04:38:39.077Z,54.80
2019-05-02T04:41:01.143Z,56.47
2019-05-02T04:43:30.870Z,57.00
2019-05-02T04:46:00.708Z,58.03
2019-05-02T04:48:34.642Z,55.53
2019-05-02T04:51:13.549Z,56.10
2019-05-02T04:53:36.590Z,55.63
2019-05-02T04:56:10.559Z,52.80
2019-05-02T04:58:44.951Z,55.00
2019-05-02T05:01:14.675Z,56.10
2019-05-02T05:03:49.157Z,54.70
2019-05-02T05:06:15.154Z,55.60
2019-05-02T05:08:44.201Z,52.77
2019-05-02T05:11:13.920Z,55.80
2019-05-02T05:13:56.899Z,55.83
2019-05-02T05:16:23.369Z,52.80
2019-05-02T05:18:54.121Z,54.83
2019-05-02T05:21:24.810Z,55.07
2019-05-02T05:24:18.113Z,55.10
2019-05-02T05:26:57.862Z,56.53
2019-05-02T05:29:29.203Z,54.87
2019-05-02T05:32:05.531Z,56.70
2019-05-02T05:34:32.615Z,55.17
2019-05-02T05:37:03.632Z,53.73
2019-05-02T05:39:34.159Z,53.97
2019-05-02T05:42:03.367Z,55.00
2019-05-02T05:44:33.742Z,56.43
2019-05-02T05:47:04.169Z,53.27
2019-05-02T05:49:33.918Z,54.07
2019-05-02T05:52:03.953Z,53.43
2019-05-02T05:54:37.759Z,54.10
2019-05-02T05:57:16.734Z,51.87
2019-05-02T05:59:48.435Z,53.90
2019-05-02T06:02:18.539Z,53.33
2019-05-02T06:04:50.252Z,50.87
2019-05-02T06:07:20.189Z,52.70
2019-05-02T06:09:49.905Z,47.37
2019-05-02T06:12:19.485Z,49.37
2019-05-02T06:14:49.307Z,51.07
2019-05-02T06:17:18.209Z,49.43
2019-05-02T06:19:55.427Z,46.53
2019-05-02T06:22:25.682Z,49.47
2019-05-02T06:24:55.282Z,46.87
2019-05-02T06:30:04.985Z,46.23
2019-05-02T06:32:35.113Z,48.70
2019-05-02T06:35:07.070Z,45.67
2019-05-02T06:37:35.959Z,47.27
2019-05-02T06:40:08.022Z,46.17
2019-05-02T06:42:38.067Z,44.33
2019-05-02T06:45:07.182Z,47.17
2019-05-02T06:47:41.328Z,45.10
2019-05-02T06:50:08.541Z,44.60
2019-05-02T06:52:38.266Z,44.60
2019-05-02T06:55:08.883Z,45.13
2019-05-02T06:57:39.472Z,43.63
2019-05-02T07:00:10.574Z,41.77
2019-05-02T07:02:39.770Z,43.77
2019-05-02T07:05:09.517Z,41.17
2019-05-02T07:07:39.113Z,43.57
2019-05-02T07:10:09.160Z,40.20
2019-05-02T07:12:38.790Z,41.97
2019-05-02T07:15:14.944Z,37.50
2019-05-02T07:17:51.045Z,36.70
2019-05-02T07:20:20.189Z,39.37
2019-05-02T07:22:49.121Z,38.00
2019-05-02T07:25:18.573Z,38.17
2019-05-02T07:27:53.761Z,35.70
2019-05-02T07:30:22.785Z,36.63
2019-05-02T07:32:51.670Z,37.67
2019-05-02T07:35:24.420Z,37.17
2019-05-02T07:37:52.733Z,36.17
2019-05-02T07:40:22.441Z,37.67
2019-05-02T07:42:52.083Z,36.13
2019-05-02T07:45:22.481Z,36.10
2019-05-02T07:47:51.419Z,34.57
2019-05-02T07:50:21.008Z,33.67
2019-05-02T07:52:51.026Z,34.03
2019-05-02T07:55:20.777Z,35.57
2019-05-02T07:57:50.346Z,34.50
2019-05-02T08:00:19.998Z,35.93
2019-05-02T08:02:49.549Z,35.20
2019-05-02T08:05:21.626Z,36.07
2019-05-02T08:07:53.338Z,35.37
2019-05-02T08:10:23.885Z,35.03
2019-05-02T08:12:52.239Z,37.83
2019-05-02T08:15:24.332Z,34.43
2019-05-02T08:17:53.691Z,35.80
2019-05-02T08:20:24.046Z,35.53
2019-05-02T08:22:52.974Z,35.57
2019-05-02T08:25:21.929Z,37.03
2019-05-02T08:28:04.357Z,34.70
2019-05-02T08:30:40.391Z,37.23
2019-05-02T08:33:10.014Z,35.53
2019-05-02T08:35:38.955Z,37.20
2019-05-02T08:38:12.491Z,38.00
2019-05-02T08:40:42.409Z,37.57
2019-05-02T08:43:18.550Z,37.27
2019-05-02T08:45:48.141Z,40.07
2019-05-02T08:48:17.728Z,37.13
2019-05-02T08:50:48.292Z,37.00
2019-05-02T08:53:25.772Z,38.27
2019-05-02T08:55:55.426Z,37.63
2019-05-02T08:58:25.014Z,39.17
2019-05-02T09:00:55.003Z,37.40
2019-05-02T09:03:24.894Z,37.77
2019-05-02T09:06:05.669Z,37.23
2019-05-02T09:08:27.566Z,37.97
2019-05-02T09:10:57.198Z,35.37
2019-05-02T09:13:29.234Z,36.67
2019-05-02T09:16:06.403Z,37.17
2019-05-02T09:18:39.625Z,35.13
2019-05-02T09:21:05.837Z,36.63
2019-05-02T09:23:37.059Z,36.37
2019-05-02T09:26:08.561Z,36.80
2019-05-02T09:28:38.799Z,37.20
2019-05-02T09:31:08.453Z,37.20
2019-05-02T09:33:42.494Z,36.13
2019-05-02T09:36:11.917Z,38.60
2019-05-02T09:38:42.482Z,34.47
2019-05-02T09:41:18.761Z,34.97
2019-05-02T09:43:42.632Z,35.83
2019-05-02T09:46:16.478Z,32.80
2019-05-02T09:48:43.737Z,33.70
2019-05-02T09:51:17.428Z,33.80
2019-05-02T09:53:44.277Z,33.17
2019-05-02T09:56:13.861Z,34.17
2019-05-02T09:58:49.072Z,32.60
2019-05-02T10:01:44.890Z,30.97
2019-05-02T10:04:14.578Z,31.80
2019-05-02T10:06:44.499Z,32.20
2019-05-02T10:09:13.507Z,29.90
2019-05-02T10:11:42.398Z,33.93
2019-05-02T10:14:12.193Z,29.80
2019-05-02T10:16:57.638Z,26.33
2019-05-02T10:19:28.437Z,31.63
2019-05-02T10:22:06.703Z,31.63
2019-05-02T10:24:36.001Z,28.97
2019-05-02T10:27:08.511Z,29.63
2019-05-02T10:29:36.841Z,28.07
2019-05-02T10:32:07.439Z,28.10
2019-05-02T10:34:42.199Z,27.33
2019-05-02T10:37:12.319Z,27.00
2019-05-02T10:39:42.331Z,26.00
2019-05-02T10:42:12.481Z,26.80
2019-05-02T10:44:42.633Z,25.03
2019-05-02T10:47:13.114Z,24.73
2019-05-02T10:49:48.495Z,20.67
2019-05-02T10:52:21.673Z,21.23
2019-05-02T10:54:48.592Z,23.43
2019-05-02T10:57:18.194Z,21.83
2019-05-02T10:59:47.408Z,19.47
2019-05-02T11:02:42.166Z,21.83
2019-05-02T11:05:16.953Z,20.67
2019-05-02T11:07:47.010Z,19.37
2019-05-02T11:10:17.579Z,20.60
2019-05-02T11:12:56.682Z,19.03
2019-05-02T11:15:47.996Z,19.67
2019-05-02T11:18:22.201Z,19.90
2019-05-02T11:20:59.121Z,19.17
2019-05-02T11:23:35.507Z,21.10
2019-05-02T11:26:05.240Z,20.53
2019-05-02T11:28:43.544Z,19.53
2019-05-02T11:31:13.104Z,18.77
2019-05-02T11:33:42.794Z,19.27
2019-05-02T11:36:13.846Z,21.07
2019-05-02T11:38:46.959Z,20.90
2019-05-02T11:41:15.658Z,18.53
2019-05-02T11:43:45.261Z,17.40
2019-05-02T11:46:25.586Z,14.70
2019-05-02T11:49:13.852Z,14.90
2019-05-02T11:51:47.053Z,15.57
2019-05-02T11:54:27.751Z,16.37
2019-05-02T11:56:57.109Z,15.73
2019-05-02T11:59:27.788Z,15.30
2019-05-02T12:02:18.774Z,15.97
2019-05-02T12:04:53.978Z,16.83
2019-05-02T12:07:18.869Z,15.13
2019-05-02T12:09:55.473Z,16.47
2019-05-02T12:12:19.408Z,16.00
2019-05-02T12:14:48.316Z,17.10
2019-05-02T12:17:17.869Z,16.77
2019-05-02T12:19:47.279Z,16.83
2019-05-02T12:22:17.050Z,15.87
2019-05-02T12:24:46.024Z,15.47
2019-05-02T12:27:16.142Z,17.47
2019-05-02T12:29:50.166Z,15.40
2019-05-02T12:32:16.975Z,13.97
2019-05-02T12:34:46.447Z,13.63
2019-05-02T12:37:18.948Z,15.13
2019-05-02T12:39:48.097Z,15.93
2019-05-02T12:42:18.415Z,14.73
2019-05-02T12:44:54.333Z,15.93
2019-05-02T12:47:24.214Z,14.93
2019-05-02T12:49:54.320Z,15.90
2019-05-02T12:52:24.660Z,16.00
2019-05-02T12:55:02.435Z,16.33
2019-05-02T12:57:34.927Z,17.23
2019-05-02T13:00:05.639Z,15.33
2019-05-02T13:02:47.710Z,15.87
2019-05-02T13:05:24.841Z,16.80
2019-05-02T13:07:56.540Z,16.37
2019-05-02T13:10:34.782Z,15.97
2019-05-02T13:13:07.733Z,16.93
2019-05-02T13:15:38.181Z,17.20
2019-05-02T13:20:45.127Z,18.13
2019-05-02T13:23:37.860Z,18.80
2019-05-02T13:26:19.632Z,18.30
2019-05-02T13:28:45.116Z,18.97
2019-05-02T13:31:28.240Z,18.37
2019-05-02T13:34:11.950Z,19.50
2019-05-02T13:36:42.134Z,20.07
2019-05-02T13:39:22.043Z,21.80
2019-05-02T13:41:52.240Z,19.83
2019-05-02T13:44:25.693Z,21.23
2019-05-02T13:46:55.269Z,21.93
2019-05-02T13:49:24.567Z,22.27
2019-05-02T13:51:54.255Z,22.83
2019-05-02T13:54:24.333Z,24.27
2019-05-02T13:56:54.542Z,24.93
2019-05-02T13:59:45.493Z,25.57
2019-05-02T14:02:35.905Z,27.63
2019-05-02T14:05:07.509Z,24.80
2019-05-02T14:07:37.222Z,26.43
2019-05-02T14:10:13.901Z,24.50
2019-05-02T14:13:03.241Z,25.37
2019-05-02T14:15:37.178Z,23.80
2019-05-02T14:18:06.169Z,25.23
2019-05-02T14:20:37.404Z,26.70
2019-05-02T14:23:06.352Z,27.80
2019-05-02T14:25:37.683Z,29.20
2019-05-02T14:28:06.577Z,26.90
2019-05-02T14:30:40.817Z,30.33
2019-05-02T14:33:17.237Z,30.00
2019-05-02T14:35:47.493Z,30.37
2019-05-02T14:38:17.062Z,29.53
2019-05-02T14:41:29.971Z,29.30
2019-05-02T14:43:57.360Z,31.20
2019-05-02T14:46:35.239Z,30.17
2019-05-02T14:49:03.726Z,29.67
2019-05-02T14:51:36.599Z,32.37
2019-05-02T14:54:08.158Z,30.80
2019-05-02T14:56:52.423Z,32.53
2019-05-02T14:59:28.682Z,31.13
2019-05-02T15:02:03.751Z,33.27
2019-05-02T15:04:32.123Z,36.30
2019-05-02T15:07:02.186Z,35.03
2019-05-02T15:09:37.368Z,37.47
2019-05-02T15:12:15.959Z,38.43
2019-05-02T15:14:39.356Z,38.37
2019-05-02T15:17:08.948Z,39.47
2019-05-02T15:19:37.861Z,38.27
2019-05-02T15:22:12.916Z,39.70
2019-05-02T15:24:43.189Z,38.27
2019-05-02T15:27:17.799Z,39.03
2019-05-02T15:29:53.901Z,39.53
2019-05-02T15:32:53.781Z,40.63
2019-05-02T15:35:31.797Z,42.87
2019-05-02T15:38:06.401Z,37.37
2019-05-02T15:40:48.054Z,41.77
2019-05-02T15:43:12.604Z,47.33
2019-05-02T15:45:44.146Z,37.77
2019-05-02T15:48:14.607Z,40.90
2019-05-02T15:50:59.999Z,37.30
2019-05-02T15:53:32.728Z,27.93
2019-05-02T15:56:18.702Z,21.47
2019-05-02T15:58:43.095Z,20.30
2019-05-02T16:01:28.718Z,19.83
2019-05-02T16:03:58.986Z,18.33
2019-05-02T16:06:31.638Z,20.60
2019-05-02T16:09:16.170Z,20.07
2019-05-02T16:11:48.013Z,19.60
2019-05-02T16:14:16.683Z,19.87
2019-05-02T16:16:46.247Z,18.63
2019-05-02T16:19:27.042Z,19.60
2019-05-02T16:21:52.020Z,19.80
2019-05-02T16:24:23.294Z,17.70
2019-05-02T16:26:58.671Z,18.87
2019-05-02T16:29:28.824Z,19.67
2019-05-02T16:32:21.837Z,21.33
2019-05-02T16:34:54.886Z,21.73
2019-05-02T16:37:25.138Z,19.87
2019-05-02T16:40:04.331Z,18.40
2019-05-02T16:42:24.880Z,20.90
2019-05-02T16:44:55.594Z,20.63
2019-05-02T16:47:25.170Z,20.50
2019-05-02T16:49:56.394Z,19.07
2019-05-02T16:52:26.493Z,19.40
2019-05-02T16:55:07.993Z,19.70
2019-05-02T16:57:37.654Z,20.53
2019-05-02T17:00:06.935Z,19.80
2019-05-02T17:02:43.536Z,17.63
2019-05-02T17:05:12.051Z,17.97
2019-05-02T17:08:03.652Z,18.67
2019-05-02T17:10:39.401Z,17.93
2019-05-02T17:13:08.303Z,15.17
2019-05-02T17:15:38.493Z,14.37
2019-05-02T17:18:17.224Z,15.50
2019-05-02T17:20:40.121Z,15.50
2019-05-02T17:23:12.696Z,15.93
2019-05-02T17:25:41.748Z,16.67
2019-05-02T17:28:13.243Z,16.40
2019-05-02T17:30:43.080Z,17.63
2019-05-02T17:33:16.127Z,17.67
2019-05-02T17:35:49.426Z,17.80
2019-05-02T17:38:19.082Z,18.97
2019-05-02T17:40:46.364Z,17.60
2019-05-02T17:43:15.564Z,18.20
2019-05-02T17:45:47.811Z,18.57
2019-05-02T17:48:17.834Z,18.47
2019-05-02T17:51:06.202Z,18.80
2019-05-02T17:53:41.507Z,19.90
2019-05-02T17:56:13.079Z,20.57
2019-05-02T17:58:39.731Z,23.00
2019-05-02T18:01:13.232Z,23.73
2019-05-02T18:03:43.193Z,24.03
2019-05-02T18:06:17.167Z,24.07
2019-05-02T18:08:46.244Z,22.77
2019-05-02T18:11:15.416Z,23.23
2019-05-02T18:13:45.260Z,21.10
2019-05-02T18:16:16.674Z,21.57
2019-05-02T18:18:46.737Z,22.33
2019-05-02T18:21:17.685Z,22.93
2019-05-02T18:23:46.493Z,22.77
2019-05-02T18:26:16.432Z,20.73
2019-05-02T18:28:49.190Z,20.23
2019-05-02T18:31:18.469Z,21.80
2019-05-02T18:33:47.902Z,22.83
2019-05-02T18:36:22.714Z,22.10
2019-05-02T18:38:52.431Z,24.13
2019-05-02T18:41:19.889Z,22.97
2019-05-02T18:44:02.836Z,25.57
2019-05-02T18:46:36.754Z,25.17
2019-05-02T18:49:04.692Z,24.23
2019-05-02T18:51:33.582Z,26.93
2019-05-02T18:54:07.527Z,26.13
2019-05-02T18:56:41.203Z,25.40
2019-05-02T18:59:05.725Z,23.73
2019-05-02T19:01:35.857Z,26.43
2019-05-02T19:04:05.732Z,25.27
2019-05-02T19:06:36.167Z,25.60
2019-05-02T19:09:07.783Z,29.20
2019-05-02T19:11:37.510Z,30.40
2019-05-02T19:14:06.860Z,32.17
2019-05-02T19:16:36.561Z,30.47
2019-05-02T19:19:05.493Z,31.93
2019-05-02T19:21:39.107Z,30.57
2019-05-02T19:24:06.267Z,29.60
2019-05-02T19:26:36.454Z,30.70
2019-05-02T19:29:51.722Z,31.70
2019-05-02T19:32:00.546Z,33.07
2019-05-02T19:37:02.901Z,33.63
2019-05-02T19:39:34.223Z,33.43
2019-05-02T19:42:04.247Z,33.63
2019-05-02T19:44:42.164Z,35.33
2019-05-02T19:47:17.694Z,32.77
2019-05-02T19:49:52.159Z,35.83
2019-05-02T19:52:17.681Z,33.70
2019-05-02T19:54:49.432Z,36.77
2019-05-02T19:57:24.752Z,36.93
2019-05-02T19:59:57.185Z,35.43
2019-05-02T20:02:32.706Z,35.27
2019-05-02T20:05:03.212Z,34.37
2019-05-02T20:07:33.147Z,33.53
2019-05-02T20:10:05.049Z,34.60
2019-05-02T20:12:34.614Z,35.77
2019-05-02T20:15:04.715Z,35.83
2019-05-02T20:17:38.897Z,36.93
2019-05-02T20:20:15.348Z,36.50
2019-05-02T20:22:44.973Z,37.23
2019-05-02T20:25:13.861Z,38.13
2019-05-02T20:27:52.584Z,38.63
2019-05-02T20:30:22.479Z,38.87
2019-05-02T20:32:52.760Z,37.50
2019-05-02T20:35:22.684Z,39.27
2019-05-02T20:37:52.623Z,40.03
2019-05-02T20:40:31.677Z,40.80
2019-05-02T20:43:02.421Z,40.83
2019-05-02T20:45:32.326Z,40.57
2019-05-02T20:48:03.682Z,40.07
2019-05-02T20:50:32.918Z,40.60
2019-05-02T20:53:03.710Z,41.97
2019-05-02T20:55:32.613Z,40.37
2019-05-02T20:58:02.748Z,39.63
2019-05-02T21:00:34.799Z,40.90
2019-05-02T21:03:04.369Z,37.60
2019-05-02T21:05:58.432Z,39.00
2019-05-02T21:08:52.683Z,40.00
2019-05-02T21:11:23.095Z,37.27
2019-05-02T21:14:01.788Z,38.07
2019-05-02T21:16:32.262Z,34.33
2019-05-02T21:19:02.361Z,33.40
2019-05-02T21:21:33.457Z,18.23
2019-05-02T21:24:04.388Z,17.17
2019-05-02T21:26:42.209Z,12.87
2019-05-02T21:29:12.271Z,9.40
2019-05-02T21:31:42.509Z,9.03
2019-05-02T21:34:12.304Z,9.43
2019-05-02T21:36:42.516Z,8.93
2019-05-02T21:39:12.012Z,8.20
2019-05-02T21:41:42.350Z,8.60
2019-05-02T21:44:19.969Z,8.43
2019-05-02T21:47:00.160Z,9.23
2019-05-02T21:50:01.832Z,9.40
2019-05-02T21:53:02.319Z,10.17
2019-05-02T21:55:46.592Z,8.83
2019-05-02T21:58:16.577Z,8.87
2019-05-02T22:00:55.373Z,9.23
2019-05-02T22:03:24.508Z,9.53
2019-05-02T22:06:05.823Z,8.93
2019-05-02T22:08:35.421Z,9.13
2019-05-02T22:11:04.972Z,9.37
2019-05-02T22:13:34.520Z,9.67
2019-05-02T22:16:12.917Z,9.70
2019-05-02T22:18:42.751Z,10.10
2019-05-02T22:21:12.472Z,10.37
2019-05-02T22:23:42.549Z,11.30
2019-05-02T22:26:12.743Z,10.90
2019-05-02T22:28:42.477Z,10.40
2019-05-02T22:31:12.378Z,10.53
2019-05-02T22:33:44.672Z,10.43
2019-05-02T22:36:25.160Z,10.67
2019-05-02T22:39:22.185Z,10.30
2019-05-02T22:42:01.983Z,10.20
2019-05-02T22:44:32.358Z,10.80
2019-05-02T22:47:02.134Z,9.00
2019-05-02T22:49:32.049Z,10.23
2019-05-02T22:52:02.564Z,10.43
2019-05-02T22:54:33.839Z,10.07
2019-05-02T22:57:04.124Z,9.30
2019-05-02T22:59:33.005Z,11.03
2019-05-02T23:02:02.614Z,10.77
2019-05-02T23:04:32.670Z,10.10
2019-05-02T23:07:02.987Z,10.97
2019-05-02T23:09:31.961Z,10.83
2019-05-02T23:12:02.940Z,9.13
2019-05-02T23:14:32.496Z,10.60
2019-05-02T23:17:02.268Z,10.20
2019-05-02T23:19:31.838Z,9.93
2019-05-02T23:22:02.374Z,10.27
2019-05-02T23:24:54.612Z,9.80
2019-05-02T23:27:45.992Z,10.53
2019-05-02T23:30:17.281Z,9.87
2019-05-02T23:32:46.444Z,9.97
2019-05-02T23:35:18.837Z,10.27
2019-05-02T23:37:54.284Z,10.73
2019-05-02T23:40:23.548Z,11.17
2019-05-02T23:42:53.436Z,12.30
2019-05-02T23:45:23.320Z,11.87
2019-05-02T23:47:53.220Z,12.10
2019-05-02T23:50:22.977Z,11.40
2019-05-02T23:52:53.506Z,12.83
2019-05-02T23:55:22.863Z,11.73
2019-05-02T23:57:52.485Z,11.63
